Pallaskenry, Ireland
Current Conditions -  °F | °C
As of 11:30 PM on Saturday 22 Nov 2014 (Local Time) from EINN Reporting Station
Few Clouds Few Clouds  
Wind Chill: 37°   Ceiling: Unl
Heat Index: 37°   Visibility: 6mi
Dew Point: 37°   Wind: 3mph
Humidity: 100%   Direction: 90°E
Pressure: 30.09"   Gusts: NA
Location:  52.65°N, 8.87°W
Report Text: EINN 222330Z 09003KT 9999 FEW009 03/03 Q1019 NOSIG
Loading
Personal Weather Stations






























Interactive Weather Map New forecast layout! Learn more

10-Day Weather Forecast

Advertisements
Track Severe Weather on mobile